createdAt,value
2022-11-28T06:25:53.827Z,102191.00
2022-11-28T06:28:21.392Z,102190.16
2022-11-28T06:30:49.042Z,102191.13
2022-11-28T06:33:16.890Z,102193.00
2022-11-28T06:35:44.782Z,102194.00
2022-11-28T06:38:14.398Z,102191.47
2022-11-28T06:40:42.602Z,102184.59
2022-11-28T06:43:11.638Z,102194.09
2022-11-28T06:45:39.687Z,102178.63
2022-11-28T06:48:07.413Z,102183.91
2022-11-28T06:50:35.005Z,102180.47
2022-11-28T06:53:02.563Z,102188.28
2022-11-28T06:55:30.659Z,102188.38
2022-11-28T06:57:58.294Z,102189.34
2022-11-28T07:00:27.342Z,102189.34
2022-11-28T07:02:55.242Z,102183.41
2022-11-28T07:05:23.168Z,102181.69
2022-11-28T07:07:54.470Z,102187.91
2022-11-28T07:10:22.804Z,102186.31
2022-11-28T07:12:54.002Z,102188.06
2022-11-28T07:15:22.219Z,102187.34
2022-11-28T07:17:51.840Z,102178.00
2022-11-28T07:20:19.813Z,102173.69
2022-11-28T07:22:48.594Z,102169.31
2022-11-28T07:25:16.668Z,102174.78
2022-11-28T07:27:44.388Z,102173.16
2022-11-28T07:30:13.659Z,102177.50
2022-11-28T07:32:41.395Z,102170.59
2022-11-28T07:35:10.654Z,102162.78
2022-11-28T07:37:38.245Z,102158.63
2022-11-28T07:40:07.269Z,102153.53
2022-11-28T07:42:35.111Z,102150.78
2022-11-28T07:45:02.790Z,102154.38
2022-11-28T07:47:30.943Z,102147.69
2022-11-28T07:49:58.463Z,102154.59
2022-11-28T07:52:27.483Z,102154.69
2022-11-28T07:54:55.376Z,102146.91
2022-11-28T07:57:22.944Z,102155.50
2022-11-28T07:59:51.727Z,102152.91
2022-11-28T08:02:20.026Z,102153.94
2022-11-28T08:04:51.546Z,102154.84
2022-11-28T08:07:21.983Z,102156.56
2022-11-28T08:09:51.074Z,102156.66
2022-11-28T08:12:18.651Z,102163.78
2022-11-28T08:14:46.563Z,102159.56
2022-11-28T08:17:14.438Z,102162.25
2022-11-28T08:19:42.308Z,102158.06
2022-11-28T08:22:09.996Z,102155.66
2022-11-28T08:24:38.034Z,102154.75
2022-11-28T08:27:07.119Z,102147.00
2022-11-28T08:29:35.047Z,102151.53
2022-11-28T08:32:02.641Z,102151.59
2022-11-28T08:34:30.527Z,102149.78
2022-11-28T08:36:58.215Z,102161.88
2022-11-28T08:39:26.002Z,102152.28
2022-11-28T08:41:54.243Z,102142.69
2022-11-28T08:44:23.591Z,102151.47
2022-11-28T08:46:51.244Z,102135.81
2022-11-28T08:49:18.908Z,102139.34
2022-11-28T08:51:46.737Z,102137.34
2022-11-28T08:54:14.923Z,102134.75
2022-11-28T08:56:43.773Z,102135.81
2022-11-28T08:59:11.585Z,102135.72
2022-11-28T09:01:40.623Z,102134.91
2022-11-28T09:04:29.430Z,102131.63
2022-11-28T09:06:57.288Z,102125.34
2022-11-28T09:09:26.312Z,102126.97
2022-11-28T09:11:56.510Z,102121.97
2022-11-28T09:14:26.682Z,102117.72
2022-11-28T09:16:55.802Z,102109.03
2022-11-28T09:19:24.251Z,102119.63
2022-11-28T09:21:57.529Z,102122.13
2022-11-28T09:24:25.668Z,102113.63
2022-11-28T09:26:53.235Z,102112.66
2022-11-28T09:29:20.798Z,102110.84
2022-11-28T09:31:48.499Z,102108.22
2022-11-28T09:34:17.553Z,102103.97
2022-11-28T09:36:45.206Z,102098.63
2022-11-28T09:39:12.943Z,102100.47
2022-11-28T09:42:04.383Z,102089.25
2022-11-28T09:44:42.119Z,102086.00
2022-11-28T09:47:18.128Z,102083.50
2022-11-28T09:49:52.618Z,102070.56
2022-11-28T09:52:32.412Z,102069.97
2022-11-28T09:55:14.473Z,102071.66
2022-11-28T09:57:43.647Z,102068.56
2022-11-28T10:00:15.043Z,102061.59
2022-11-28T11:27:19.465Z,102014.66
2022-11-28T11:29:51.230Z,102007.81
2022-11-28T11:32:21.439Z,102009.59
2022-11-28T11:34:50.582Z,102007.03
2022-11-28T11:37:31.620Z,102008.66
2022-11-28T11:40:01.058Z,102000.94
2022-11-28T11:42:33.099Z,102009.63
2022-11-28T11:45:24.540Z,101999.13
2022-11-28T11:47:52.469Z,102008.59
2022-11-28T11:50:22.455Z,102006.09
2022-11-28T11:53:06.707Z,102000.06
2022-11-28T11:55:43.563Z,101997.59
2022-11-28T11:58:18.559Z,101995.84
2022-11-28T12:00:46.995Z,101998.41
2022-11-28T12:03:25.880Z,102001.06
2022-11-28T12:06:14.276Z,101994.09
2022-11-28T12:08:47.912Z,101998.47
2022-11-28T12:11:42.489Z,101997.66
2022-11-28T12:14:27.055Z,101994.25
2022-11-28T12:20:08.738Z,101978.75
2022-11-28T12:22:48.861Z,101967.59
2022-11-28T12:25:26.008Z,101964.16
2022-11-28T12:28:01.384Z,101965.09
2022-11-28T12:30:45.446Z,101965.09
2022-11-28T12:33:33.120Z,101973.00
2022-11-28T12:36:10.799Z,101975.59
2022-11-28T12:38:55.468Z,101971.25
2022-11-28T12:55:47.204Z,101968.81
2022-11-28T12:58:21.915Z,101967.09
2022-11-28T13:00:57.954Z,101961.84
2022-11-28T13:03:38.914Z,101964.53
2022-11-28T13:06:22.606Z,101964.53
2022-11-28T13:09:09.459Z,101965.34
2022-11-28T13:11:56.326Z,101971.47
2022-11-28T13:14:34.340Z,101978.38
2022-11-28T13:17:15.565Z,101974.06
2022-11-28T13:19:52.161Z,101975.69
2022-11-28T13:22:24.091Z,101978.28
2022-11-28T13:25:01.950Z,101960.72
2022-11-28T13:27:41.906Z,101975.66
2022-11-28T13:30:19.644Z,101982.59
2022-11-28T13:32:56.026Z,101978.22
2022-11-28T13:35:24.728Z,101971.25
2022-11-28T13:40:51.922Z,101979.00
2022-11-28T13:43:27.713Z,101975.50
2022-11-28T13:45:56.206Z,101978.06
2022-11-28T13:49:13.699Z,101978.97
2022-11-28T13:51:42.405Z,101981.59
2022-11-28T13:54:42.465Z,101986.78
2022-11-28T13:57:21.549Z,101989.41
2022-11-28T13:59:57.766Z,101991.09
2022-11-28T14:02:36.207Z,101985.72
2022-11-28T14:05:14.888Z,101978.88
2022-11-28T14:07:49.996Z,101990.19
2022-11-28T14:10:40.580Z,101993.63
2022-11-28T14:13:49.639Z,101996.22
2022-11-28T14:16:33.958Z,101995.31
2022-11-28T14:19:14.503Z,102004.84
2022-11-28T14:21:56.639Z,102007.38
2022-11-28T14:24:37.142Z,102012.63
2022-11-28T14:27:07.048Z,102022.97
2022-11-28T14:29:39.148Z,102018.63
2022-11-28T14:32:32.392Z,102019.47
2022-11-28T14:35:00.991Z,102019.38
2022-11-28T14:37:56.685Z,102024.53
2022-11-28T14:41:00.326Z,102021.06
2022-11-28T14:43:29.539Z,102009.66
2022-11-28T14:46:36.707Z,102010.44
2022-11-28T14:49:17.754Z,102013.84
2022-11-28T14:52:30.769Z,102010.41
2022-11-28T14:54:54.892Z,102012.94
2022-11-28T14:57:28.587Z,102013.84
2022-11-28T14:59:58.794Z,102019.88
2022-11-28T15:02:36.281Z,102017.22
2022-11-28T15:05:19.734Z,102012.03
2022-11-28T15:08:00.681Z,102006.03
2022-11-28T15:10:39.272Z,102006.84
2022-11-28T15:13:32.504Z,102009.44
2022-11-28T15:16:05.528Z,101998.03
2022-11-28T15:18:34.990Z,102008.56
2022-11-28T15:21:11.892Z,102005.06
2022-11-28T15:23:39.481Z,102005.97
2022-11-28T15:26:17.505Z,102006.81
2022-11-28T15:28:45.082Z,102006.81
2022-11-28T15:31:21.898Z,102012.88
2022-11-28T15:33:50.791Z,102014.63
2022-11-28T15:36:27.236Z,102023.34
2022-11-28T15:38:56.933Z,102023.34
2022-11-28T15:41:27.340Z,102023.22
2022-11-28T15:43:56.694Z,102019.78
2022-11-28T15:46:30.716Z,102022.34
2022-11-28T15:48:58.536Z,102015.47
2022-11-28T15:51:30.718Z,102008.53
2022-11-28T15:53:58.471Z,102010.31
2022-11-28T15:56:26.668Z,102007.75
2022-11-28T15:58:54.887Z,101989.56
2022-11-28T16:01:24.141Z,101998.25
2022-11-28T16:03:56.661Z,101996.56
2022-11-28T16:06:26.882Z,101993.09
2022-11-28T16:08:58.678Z,101994.81
2022-11-28T16:11:27.326Z,102000.06
2022-11-28T16:13:57.756Z,101992.22
2022-11-28T16:16:28.655Z,101998.38
2022-11-28T16:18:58.149Z,101997.50
2022-11-28T20:59:18.186Z,101932.81
